createdAt,value
2023-04-23T00:27:32.985Z,10.28
2023-04-23T00:57:33.513Z,10.18
2023-04-23T01:27:35.364Z,9.95
2023-04-23T01:57:33.268Z,9.88
2023-04-23T02:27:33.148Z,9.59
2023-04-23T02:57:33.240Z,9.58
2023-04-23T03:27:32.727Z,9.43
2023-04-23T03:57:32.994Z,9.37
2023-04-23T04:27:33.029Z,9.35
2023-04-23T04:57:32.897Z,9.11
2023-04-23T05:27:32.797Z,8.9
2023-04-23T06:27:32.584Z,9.14
2023-04-23T06:57:33.100Z,11.3
2023-04-23T07:57:32.526Z,12.75
2023-04-23T08:27:32.561Z,17.82
2023-04-23T08:57:32.670Z,20.8
2023-04-23T09:27:32.639Z,20.92
2023-04-23T09:57:32.770Z,20.05
2023-04-23T10:27:40.107Z,18.65
2023-04-23T10:57:32.549Z,17.85
2023-04-23T11:27:32.217Z,18.47
2023-04-23T11:57:32.361Z,18.71
2023-04-23T12:27:32.256Z,17.9
2023-04-23T12:57:32.443Z,17.71
2023-04-23T13:27:32.034Z,17.37
2023-04-23T13:57:32.275Z,17.35
2023-04-23T14:27:32.108Z,17.68
2023-04-23T14:57:32.032Z,16.15
2023-04-23T15:27:31.904Z,13.02
2023-04-23T15:57:31.929Z,12.05
2023-04-23T16:27:31.660Z,11.62
2023-04-23T16:57:31.632Z,11.44
2023-04-23T17:27:32.093Z,11.52
2023-04-23T17:57:31.719Z,11.28
2023-04-23T18:27:33.994Z,11.13
2023-04-23T18:57:31.719Z,11.05
2023-04-23T19:27:31.176Z,10.57
2023-04-23T19:57:31.538Z,10.38
2023-04-23T20:57:31.376Z,10.41
2023-04-23T21:27:31.529Z,9.99
2023-04-23T22:27:31.953Z,9.93
2023-04-23T22:57:31.537Z,9.68
2023-04-23T23:27:31.436Z,9.58
2023-04-23T23:57:31.341Z,9.52
